Time;durP1;ratioP1;P1;durP2;ratioP2;P2;SDS_P1;SDS_P2;PMS_P1;PMS_P2;Temp;Humidity;BMP_temperature;BMP_pressure;BME280_temperature;BME280_humidity;BME280_pressure;Samples;Min_cycle;Max_cycle;Signal;HPM_P1;HPM_P2
2023/07/01 00:02:12;;;;;;;6.00;3.10;;;17.70;99.90;;;;;;6240307;22;20012;-33
2023/07/01 00:04:38;;;;;;;7.57;2.85;;;17.70;99.90;;;;;;6241535;23;20004;-33
2023/07/01 00:07:04;;;;;;;6.30;3.22;;;17.70;99.90;;;;;;6241747;23;20376;-33
2023/07/01 00:09:31;;;;;;;5.45;2.97;;;17.70;99.90;;;;;;6241026;23;20023;-33
2023/07/01 00:11:57;;;;;;;7.25;3.28;;;17.80;99.90;;;;;;6240734;22;20012;-39
2023/07/01 00:14:22;;;;;;;6.50;2.83;;;17.70;99.90;;;;;;6241357;23;20046;-33
2023/07/01 00:16:48;;;;;;;5.75;2.92;;;17.80;99.90;;;;;;6241186;23;20087;-33
2023/07/01 00:19:14;;;;;;;5.43;2.92;;;17.70;99.90;;;;;;6241374;23;20012;-32
2023/07/01 00:21:40;;;;;;;5.80;2.63;;;17.70;99.90;;;;;;6215766;22;20016;-32
2023/07/01 00:24:06;;;;;;;6.28;2.53;;;17.80;99.90;;;;;;6241722;23;20016;-35
2023/07/01 00:26:31;;;;;;;5.60;2.78;;;17.80;99.90;;;;;;6241398;23;20065;-35
2023/07/01 00:28:57;;;;;;;6.72;3.30;;;17.80;99.90;;;;;;6240583;23;20016;-34
2023/07/01 00:31:23;;;;;;;7.25;2.80;;;17.80;99.90;;;;;;6240590;23;20343;-32
2023/07/01 00:33:48;;;;;;;7.68;2.88;;;17.80;99.90;;;;;;6241709;22;20008;-33
2023/07/01 00:36:14;;;;;;;5.90;2.75;;;17.80;99.90;;;;;;6240409;23;20012;-33
2023/07/01 00:38:40;;;;;;;7.25;3.05;;;17.70;99.90;;;;;;6241285;23;20023;-36
2023/07/01 00:41:05;;;;;;;6.25;2.63;;;17.70;99.90;;;;;;6241035;23;20044;-32
2023/07/01 00:43:31;;;;;;;8.82;3.38;;;17.70;99.90;;;;;;6241649;22;20016;-33
2023/07/01 00:45:57;;;;;;;7.90;2.78;;;17.70;99.90;;;;;;6240868;23;20050;-32
2023/07/01 00:48:24;;;;;;;4.82;2.88;;;17.70;99.90;;;;;;6241555;23;20012;-33
2023/07/01 00:50:51;;;;;;;5.47;2.85;;;17.70;99.90;;;;;;6241178;23;20019;-36
2023/07/01 00:53:17;;;;;;;6.13;3.10;;;17.70;99.90;;;;;;6241198;22;20008;-32
2023/07/01 00:55:43;;;;;;;3.67;2.72;;;17.70;99.90;;;;;;6241520;23;20465;-32
2023/07/01 00:58:09;;;;;;;7.13;3.13;;;17.70;99.90;;;;;;6241321;23;20015;-32
2023/07/01 01:00:34;;;;;;;5.50;3.00;;;17.70;99.90;;;;;;6239702;23;20435;-34
2023/07/01 01:03:26;;;;;;;7.05;3.05;;;17.80;99.90;;;;;;6213613;23;20074;-41
2023/07/01 01:06:04;;;;;;;5.50;2.90;;;17.80;99.90;;;;;;6241511;23;20008;-34
2023/07/01 01:08:47;;;;;;;7.10;3.03;;;17.80;99.90;;;;;;6241446;23;20012;-32
2023/07/01 01:11:14;;;;;;;6.50;2.88;;;17.80;99.90;;;;;;6241228;23;20070;-32
2023/07/01 01:13:43;;;;;;;3.80;2.83;;;17.80;99.90;;;;;;6214967;23;20042;-32
2023/07/01 01:16:11;;;;;;;5.05;2.60;;;17.80;99.90;;;;;;6242079;23;20024;-36
2023/07/01 01:18:39;;;;;;;5.63;2.92;;;17.80;99.90;;;;;;6241602;23;20016;-36
2023/07/01 01:21:06;;;;;;;7.55;3.10;;;17.90;99.90;;;;;;6242074;23;20347;-34
2023/07/01 01:23:55;;;;;;;5.38;2.97;;;17.90;99.90;;;;;;6189866;23;20070;-32
2023/07/01 01:26:26;;;;;;;4.20;2.63;;;17.90;99.90;;;;;;6241183;23;20138;-33
2023/07/01 01:28:52;;;;;;;4.25;3.03;;;17.90;99.90;;;;;;6214357;23;20020;-32
2023/07/01 01:31:20;;;;;;;4.00;2.65;;;17.90;99.90;;;;;;6240547;23;20019;-32
2023/07/01 01:33:46;;;;;;;6.70;2.92;;;17.90;99.90;;;;;;6241627;22;20011;-32
2023/07/01 01:36:34;;;;;;;7.28;3.22;;;17.90;99.90;;;;;;6214629;23;20016;-32
2023/07/01 01:39:05;;;;;;;6.18;2.92;;;17.90;99.90;;;;;;6241421;23;20058;-32
2023/07/01 01:41:59;;;;;;;8.82;2.85;;;17.90;99.90;;;;;;6241229;22;20008;-32
2023/07/01 01:44:35;;;;;;;6.40;3.40;;;17.90;99.90;;;;;;6214485;23;20020;-32
2023/07/01 01:47:01;;;;;;;8.80;3.30;;;17.90;99.90;;;;;;6241619;23;20012;-32
2023/07/01 01:49:27;;;;;;;5.80;3.40;;;17.90;99.90;;;;;;6241624;23;20367;-32
2023/07/01 01:51:55;;;;;;;6.30;3.55;;;17.90;99.90;;;;;;6241334;22;20248;-32
2023/07/01 01:54:22;;;;;;;8.30;3.30;;;17.90;99.90;;;;;;6241962;23;20371;-32
2023/07/01 01:56:51;;;;;;;8.75;3.78;;;17.90;99.90;;;;;;6241506;23;20274;-33
2023/07/01 01:59:17;;;;;;;6.05;3.28;;;17.90;99.90;;;;;;6240732;23;20008;-31
2023/07/01 02:01:45;;;;;;;5.20;3.10;;;17.90;99.90;;;;;;6241355;22;20436;-32
2023/07/01 02:04:10;;;;;;;4.57;3.13;;;17.90;99.90;;;;;;6241861;23;20011;-32
2023/07/01 02:06:36;;;;;;;6.10;3.22;;;17.90;99.90;;;;;;6214699;23;20027;-32
2023/07/01 02:09:03;;;;;;;6.38;3.30;;;17.80;99.90;;;;;;6241501;23;20016;-33
2023/07/01 02:11:29;;;;;;;5.60;3.70;;;17.80;99.90;;;;;;6214895;23;20058;-32
2023/07/01 02:13:55;;;;;;;8.07;3.55;;;17.80;99.90;;;;;;6241381;23;20370;-32
2023/07/01 02:16:21;;;;;;;7.95;3.70;;;17.80;99.90;;;;;;6242196;23;20083;-32
2023/07/01 02:18:46;;;;;;;4.57;3.47;;;17.80;99.90;;;;;;6241913;23;20019;-32
2023/07/01 02:21:12;;;;;;;9.63;3.78;;;17.70;99.90;;;;;;6241891;23;20023;-33
2023/07/01 02:23:37;;;;;;;7.40;3.25;;;17.70;99.90;;;;;;6215073;23;20030;-32
2023/07/01 02:26:03;;;;;;;6.60;3.20;;;17.70;99.90;;;;;;6214776;23;20027;-33
2023/07/01 02:28:29;;;;;;;13.73;4.45;;;17.60;99.90;;;;;;6214549;23;20042;-32
2023/07/01 02:30:54;;;;;;;6.32;4.00;;;17.60;99.90;;;;;;6238924;22;20008;-31
2023/07/01 02:33:20;;;;;;;6.78;3.50;;;17.60;99.90;;;;;;6213719;23;20019;-30
2023/07/01 02:35:46;;;;;;;5.03;3.33;;;17.50;99.90;;;;;;6240512;23;20008;-30
2023/07/01 02:38:11;;;;;;;8.10;3.53;;;17.50;99.90;;;;;;6240924;23;20018;-29
2023/07/01 02:40:37;;;;;;;7.03;2.97;;;17.40;99.90;;;;;;6240426;23;20308;-31
2023/07/01 02:43:03;;;;;;;4.13;3.25;;;17.40;99.90;;;;;;6240648;22;20423;-31
2023/07/01 02:45:28;;;;;;;8.70;3.60;;;17.30;99.90;;;;;;6214198;23;20094;-30
2023/07/01 02:47:54;;;;;;;6.45;3.33;;;17.30;99.90;;;;;;6240558;23;20015;-30
2023/07/01 02:50:19;;;;;;;6.65;3.60;;;17.30;99.90;;;;;;6213952;23;20439;-31
2023/07/01 02:52:45;;;;;;;6.82;3.28;;;17.30;99.90;;;;;;6239816;22;20434;-30
2023/07/01 02:55:11;;;;;;;5.35;3.05;;;17.30;99.90;;;;;;6240555;23;20451;-29
2023/07/01 02:57:36;;;;;;;6.30;3.08;;;17.30;99.90;;;;;;6240165;23;20016;-30
2023/07/01 03:00:04;;;;;;;5.88;3.78;;;17.20;99.90;;;;;;6240866;23;20012;-30
2023/07/01 03:02:30;;;;;;;4.43;3.33;;;17.30;99.90;;;;;;6239953;22;20008;-31
2023/07/01 03:04:55;;;;;;;6.45;3.40;;;17.20;99.90;;;;;;6240583;23;20004;-30
2023/07/01 03:07:21;;;;;;;4.38;3.63;;;17.20;99.90;;;;;;6239506;23;20447;-31
2023/07/01 03:09:50;;;;;;;5.00;3.67;;;17.30;99.90;;;;;;6239889;23;20030;-30
2023/07/01 03:12:16;;;;;;;4.32;3.63;;;17.20;99.90;;;;;;6212474;23;20020;-30
2023/07/01 03:14:43;;;;;;;4.90;3.20;;;17.20;99.90;;;;;;6212781;23;20099;-31
2023/07/01 03:17:09;;;;;;;4.82;3.20;;;17.20;99.90;;;;;;6240278;23;20020;-30
2023/07/01 03:19:34;;;;;;;4.30;3.67;;;17.20;99.90;;;;;;6239941;23;20012;-31
2023/07/01 03:22:00;;;;;;;6.63;3.40;;;17.20;99.90;;;;;;6240105;22;20062;-31
2023/07/01 03:24:33;;;;;;;4.72;3.65;;;17.10;99.90;;;;;;6213334;23;20039;-31
2023/07/01 03:27:01;;;;;;;6.05;3.22;;;17.10;99.90;;;;;;6240383;23;20008;-31
2023/07/01 03:29:26;;;;;;;6.30;3.40;;;17.10;99.90;;;;;;6240692;23;20043;-30
2023/07/01 03:31:52;;;;;;;7.15;3.38;;;17.10;99.90;;;;;;6240132;22;20012;-30
2023/07/01 03:34:22;;;;;;;3.55;3.00;;;17.10;99.90;;;;;;6241018;23;20534;-31
2023/07/01 03:36:47;;;;;;;5.90;3.22;;;17.10;99.90;;;;;;6240533;23;20031;-31
2023/07/01 03:39:13;;;;;;;4.85;3.50;;;17.20;99.90;;;;;;6240909;23;20016;-31
2023/07/01 03:41:39;;;;;;;5.38;3.35;;;17.20;99.90;;;;;;6240296;22;20039;-31
2023/07/01 03:44:07;;;;;;;5.30;3.40;;;17.20;99.90;;;;;;6240214;23;20016;-31
2023/07/01 03:46:33;;;;;;;5.15;3.25;;;17.20;99.90;;;;;;6240427;23;20019;-31
2023/07/01 03:48:59;;;;;;;4.88;3.03;;;17.20;99.90;;;;;;6240051;23;20023;-31
2023/07/01 03:51:26;;;;;;;7.95;3.75;;;17.20;99.90;;;;;;6240815;23;20443;-31
2023/07/01 03:53:52;;;;;;;3.60;3.22;;;17.20;99.90;;;;;;6240299;22;20091;-31
2023/07/01 03:56:18;;;;;;;4.68;3.33;;;17.10;99.90;;;;;;6241110;23;20474;-31
2023/07/01 03:58:43;;;;;;;4.35;3.40;;;17.00;99.90;;;;;;6242109;23;20339;-31
2023/07/01 04:01:09;;;;;;;6.22;3.65;;;17.00;99.90;;;;;;6216237;23;20016;-33
2023/07/01 04:03:37;;;;;;;4.18;3.30;;;16.80;99.90;;;;;;6215946;23;20023;-31
2023/07/01 04:06:03;;;;;;;6.35;4.07;;;16.70;99.90;;;;;;6243305;23;20016;-31
2023/07/01 04:08:28;;;;;;;5.93;3.65;;;16.70;99.90;;;;;;6243206;23;20491;-31
2023/07/01 04:10:54;;;;;;;4.80;3.70;;;16.60;99.90;;;;;;6243005;23;20008;-30
2023/07/01 04:13:20;;;;;;;7.00;3.95;;;16.60;99.90;;;;;;6243210;22;20012;-31
2023/07/01 04:15:46;;;;;;;6.78;4.15;;;16.50;99.90;;;;;;6243783;23;20466;-31
2023/07/01 04:18:11;;;;;;;5.50;4.30;;;16.40;99.90;;;;;;6216063;23;20020;-31
2023/07/01 04:20:37;;;;;;;5.07;3.97;;;16.40;99.90;;;;;;6243485;23;20012;-31
2023/07/01 04:23:03;;;;;;;4.22;3.30;;;16.30;99.90;;;;;;6242678;22;20365;-31
2023/07/01 04:25:28;;;;;;;6.70;3.92;;;16.30;99.90;;;;;;6243249;23;20004;-31
2023/07/01 04:27:54;;;;;;;10.43;3.90;;;16.30;99.90;;;;;;6243464;23;20012;-31
2023/07/01 04:30:20;;;;;;;5.60;4.00;;;16.20;99.90;;;;;;6242607;23;20008;-31
2023/07/01 04:32:45;;;;;;;4.80;3.95;;;16.20;99.90;;;;;;6243243;22;20079;-31
2023/07/01 04:35:11;;;;;;;7.30;4.43;;;16.20;99.90;;;;;;6243927;23;20019;-31
2023/07/01 04:37:37;;;;;;;6.03;4.03;;;16.20;99.90;;;;;;6245136;23;20256;-31
2023/07/01 04:40:04;;;;;;;4.97;3.67;;;16.20;99.90;;;;;;6245309;23;20661;-31
2023/07/01 04:42:31;;;;;;;5.55;4.22;;;16.20;99.90;;;;;;6245019;22;20009;-31
2023/07/01 04:44:57;;;;;;;5.75;4.00;;;16.20;99.90;;;;;;6244894;23;20498;-31
2023/07/01 04:47:23;;;;;;;5.03;3.75;;;16.20;99.90;;;;;;6244909;23;20047;-31
2023/07/01 04:49:52;;;;;;;6.00;3.40;;;16.20;99.90;;;;;;6244814;23;20019;-31
2023/07/01 04:52:22;;;;;;;7.15;4.43;;;16.20;99.90;;;;;;6244613;22;20074;-32
2023/07/01 04:54:49;;;;;;;6.38;4.32;;;16.10;99.90;;;;;;6244896;23;20016;-32
2023/07/01 04:57:15;;;;;;;5.85;4.13;;;16.10;99.90;;;;;;6244403;23;20046;-32
2023/07/01 04:59:41;;;;;;;5.65;4.40;;;16.10;99.90;;;;;;6244977;23;20497;-31
2023/07/01 05:02:07;;;;;;;5.82;4.13;;;16.10;99.90;;;;;;6217509;23;20012;-32
2023/07/01 05:04:33;;;;;;;7.70;4.22;;;16.10;99.90;;;;;;6244163;23;20504;-32
2023/07/01 05:06:58;;;;;;;5.95;4.10;;;16.20;99.90;;;;;;6244552;23;20069;-32
2023/07/01 05:09:24;;;;;;;6.22;4.00;;;16.20;99.90;;;;;;6244861;23;20043;-32
2023/07/01 05:11:51;;;;;;;6.05;4.70;;;16.10;99.90;;;;;;6244208;22;20008;-32
2023/07/01 05:14:17;;;;;;;5.32;4.70;;;16.20;99.90;;;;;;6245385;23;20042;-32
2023/07/01 05:16:42;;;;;;;5.65;4.40;;;16.10;99.90;;;;;;6244675;23;20260;-32
2023/07/01 05:19:08;;;;;;;5.22;4.35;;;16.20;99.90;;;;;;6244721;23;20016;-32
2023/07/01 05:21:35;;;;;;;5.72;3.90;;;16.20;99.90;;;;;;6244334;22;20012;-32
2023/07/01 05:24:04;;;;;;;6.50;4.30;;;16.20;99.90;;;;;;6192332;23;20012;-31
2023/07/01 05:26:30;;;;;;;4.47;3.92;;;16.20;99.90;;;;;;6244710;23;20027;-32
2023/07/01 05:28:57;;;;;;;5.72;4.78;;;16.20;99.90;;;;;;6244382;23;20019;-32
2023/07/01 05:31:23;;;;;;;7.43;4.68;;;16.30;99.90;;;;;;6243465;23;20012;-32
2023/07/01 05:33:49;;;;;;;6.40;4.00;;;16.30;99.90;;;;;;6244316;22;20012;-32
2023/07/01 05:36:15;;;;;;;4.90;4.05;;;16.40;99.90;;;;;;6217053;23;20016;-32
2023/07/01 05:38:41;;;;;;;4.82;4.07;;;16.40;99.90;;;;;;6243419;23;20016;-32
2023/07/01 05:41:07;;;;;;;4.90;4.13;;;16.50;99.90;;;;;;6243551;23;20016;-32
2023/07/01 05:43:33;;;;;;;6.28;4.38;;;16.50;99.90;;;;;;6242245;23;20443;-32
2023/07/01 05:45:59;;;;;;;5.25;4.00;;;16.60;99.90;;;;;;6243305;23;20070;-32
2023/07/01 05:48:25;;;;;;;6.95;4.28;;;16.60;99.90;;;;;;6243491;23;20447;-32
2023/07/01 05:50:51;;;;;;;4.72;4.00;;;16.60;99.90;;;;;;6242639;23;20015;-32
2023/07/01 05:53:16;;;;;;;5.25;4.13;;;16.70;99.90;;;;;;6242581;22;20015;-32
2023/07/01 05:55:42;;;;;;;4.57;4.18;;;16.70;99.90;;;;;;6216299;23;20098;-32
2023/07/01 05:58:08;;;;;;;6.47;4.22;;;16.70;99.90;;;;;;6243981;23;20012;-31
2023/07/01 06:00:34;;;;;;;5.45;3.97;;;16.70;99.90;;;;;;6243127;23;20012;-32
2023/07/01 06:03:00;;;;;;;5.43;4.00;;;16.80;99.90;;;;;;6242431;23;20012;-31
2023/07/01 06:05:26;;;;;;;4.22;3.83;;;16.80;99.90;;;;;;6242267;23;20410;-32
2023/07/01 06:07:51;;;;;;;4.70;4.22;;;16.80;99.90;;;;;;6243494;23;20023;-32
2023/07/01 06:10:17;;;;;;;5.40;3.95;;;16.90;99.90;;;;;;6243834;23;20009;-32
2023/07/01 06:12:43;;;;;;;7.30;4.25;;;16.90;99.90;;;;;;6242628;22;20083;-32
2023/07/01 06:15:09;;;;;;;7.85;4.93;;;16.90;99.90;;;;;;6191596;23;20051;-32
2023/07/01 06:17:35;;;;;;;4.72;4.32;;;16.90;99.90;;;;;;6243237;23;20008;-32
2023/07/01 06:20:01;;;;;;;5.80;4.60;;;16.90;99.90;;;;;;6243234;23;20082;-32
2023/07/01 06:22:27;;;;;;;8.10;5.00;;;16.90;99.90;;;;;;6242783;22;20019;-32
2023/07/01 06:24:54;;;;;;;6.38;5.18;;;16.90;99.90;;;;;;6243749;23;20012;-32
2023/07/01 06:27:19;;;;;;;7.68;5.15;;;16.90;99.90;;;;;;6243091;23;20356;-32
2023/07/01 06:29:45;;;;;;;6.18;5.18;;;16.90;99.90;;;;;;6242443;23;20058;-32
2023/07/01 06:32:11;;;;;;;7.00;4.78;;;16.90;99.90;;;;;;6242598;22;20008;-32
2023/07/01 06:34:36;;;;;;;6.93;6.00;;;16.90;99.90;;;;;;6243025;23;20012;-32
2023/07/01 06:37:03;;;;;;;5.68;5.13;;;17.00;99.90;;;;;;6242433;23;20008;-32
2023/07/01 06:39:30;;;;;;;6.82;5.40;;;16.90;99.90;;;;;;6242774;23;20331;-32
2023/07/01 06:41:56;;;;;;;8.00;5.78;;;16.90;99.90;;;;;;6215890;23;20454;-32
2023/07/01 06:44:22;;;;;;;7.90;5.90;;;16.80;99.90;;;;;;6242652;23;20012;-32
2023/07/01 06:46:48;;;;;;;6.18;5.57;;;16.80;99.90;;;;;;6215012;23;20044;-32
2023/07/01 06:49:14;;;;;;;9.55;5.90;;;16.80;99.90;;;;;;6242139;23;20024;-32
2023/07/01 06:51:41;;;;;;;6.93;6.22;;;16.80;99.90;;;;;;6240508;22;20012;-32
2023/07/01 06:54:10;;;;;;;7.47;5.65;;;16.80;99.90;;;;;;6242420;23;20075;-32
2023/07/01 06:56:36;;;;;;;6.50;5.90;;;16.90;99.90;;;;;;6240305;23;20012;-32
2023/07/01 06:59:03;;;;;;;10.50;6.55;;;16.80;99.90;;;;;;6242821;23;20027;-32
2023/07/01 07:01:30;;;;;;;7.47;5.85;;;16.80;99.90;;;;;;6242540;23;20012;-32
2023/07/01 07:03:56;;;;;;;7.50;5.80;;;16.80;99.90;;;;;;6242091;23;20008;-32
2023/07/01 07:06:22;;;;;;;7.00;6.30;;;16.80;99.90;;;;;;6241784;23;20012;-32
2023/07/01 07:08:48;;;;;;;7.32;6.13;;;16.80;99.90;;;;;;6214353;23;20477;-32
2023/07/01 07:11:14;;;;;;;6.95;6.28;;;16.70;99.90;;;;;;6240602;23;20079;-32
2023/07/01 07:13:40;;;;;;;7.72;6.55;;;16.70;99.90;;;;;;6241698;22;20012;-32
2023/07/01 07:16:06;;;;;;;7.63;6.72;;;16.70;99.90;;;;;;6241163;23;20012;-32
2023/07/01 07:18:32;;;;;;;8.18;6.43;;;16.80;99.90;;;;;;6240933;23;20020;-32
2023/07/01 07:20:58;;;;;;;6.32;5.82;;;16.80;99.90;;;;;;6241435;23;20012;-32
2023/07/01 07:23:23;;;;;;;5.95;5.35;;;16.90;99.90;;;;;;6241534;22;20016;-32
2023/07/01 07:25:49;;;;;;;8.68;7.28;;;16.90;99.90;;;;;;6241401;23;20081;-32
2023/07/01 07:28:16;;;;;;;7.18;6.47;;;16.90;99.90;;;;;;6240623;23;20020;-32
2023/07/01 07:30:42;;;;;;;6.68;6.00;;;16.90;99.90;;;;;;6241961;23;20012;-32
2023/07/01 07:33:08;;;;;;;6.68;6.00;;;17.00;99.90;;;;;;6241367;22;20474;-32
2023/07/01 07:35:34;;;;;;;8.57;6.22;;;17.10;99.90;;;;;;6240919;23;20016;-32
2023/07/01 07:38:00;;;;;;;8.18;6.22;;;17.10;99.90;;;;;;6240663;23;20012;-32
2023/07/01 07:40:25;;;;;;;7.13;6.43;;;17.20;99.90;;;;;;6241211;23;20008;-32
2023/07/01 07:42:54;;;;;;;7.07;6.43;;;17.20;99.90;;;;;;6242870;22;20024;-35
2023/07/01 07:45:21;;;;;;;6.93;6.07;;;17.20;99.90;;;;;;6242609;23;20075;-32
2023/07/01 07:47:47;;;;;;;8.55;6.47;;;17.10;99.90;;;;;;6241629;23;20452;-32
2023/07/01 07:50:13;;;;;;;6.20;5.40;;;17.10;99.90;;;;;;6242436;23;20015;-31
2023/07/01 07:52:39;;;;;;;8.15;7.03;;;17.20;99.90;;;;;;6245003;22;20008;-32
2023/07/01 07:55:06;;;;;;;8.68;6.65;;;17.20;99.90;;;;;;6244745;23;20008;-31
2023/07/01 07:57:33;;;;;;;7.68;6.13;;;17.20;99.90;;;;;;6243800;23;20031;-31
2023/07/01 07:59:59;;;;;;;6.45;5.78;;;17.20;99.90;;;;;;6243453;23;20012;-31
2023/07/01 08:02:25;;;;;;;6.68;5.78;;;17.30;99.90;;;;;;6243266;22;20012;-32
2023/07/01 08:04:51;;;;;;;6.60;5.90;;;17.30;99.90;;;;;;6243363;23;20268;-32
2023/07/01 08:07:16;;;;;;;6.82;5.57;;;17.40;99.90;;;;;;6215882;23;20012;-31
2023/07/01 08:09:42;;;;;;;6.15;5.28;;;17.40;99.90;;;;;;6243381;23;20048;-31
2023/07/01 08:12:08;;;;;;;6.55;5.40;;;17.40;99.90;;;;;;6244938;22;20012;-32
2023/07/01 08:14:36;;;;;;;6.50;5.90;;;17.50;99.90;;;;;;6245599;23;20008;-32
2023/07/01 08:17:03;;;;;;;5.60;5.20;;;17.60;99.90;;;;;;6244884;23;20016;-31
2023/07/01 08:19:29;;;;;;;6.07;5.55;;;17.70;99.90;;;;;;6244835;23;20400;-31
2023/07/01 08:21:54;;;;;;;5.85;5.35;;;17.70;99.90;;;;;;6245877;22;20083;-31
2023/07/01 08:24:21;;;;;;;5.90;5.40;;;17.70;99.90;;;;;;6246633;23;20015;-31
2023/07/01 08:26:47;;;;;;;6.95;5.85;;;17.70;99.90;;;;;;6245473;23;20019;-32
2023/07/01 08:29:13;;;;;;;6.28;5.68;;;17.70;99.90;;;;;;6243300;23;20447;-32
2023/07/01 08:31:40;;;;;;;6.53;5.90;;;17.70;99.90;;;;;;6246640;22;20082;-32
2023/07/01 08:34:06;;;;;;;6.03;5.22;;;17.70;99.90;;;;;;6246220;23;20012;-31
2023/07/01 08:36:32;;;;;;;5.90;5.20;;;17.70;99.90;;;;;;6245191;23;20371;-31
2023/07/01 08:38:58;;;;;;;6.38;5.78;;;17.70;99.90;;;;;;6218813;23;20379;-31
2023/07/01 08:41:25;;;;;;;5.80;5.30;;;17.70;99.90;;;;;;6247270;23;20099;-32
2023/07/01 08:43:55;;;;;;;6.15;5.53;;;17.60;99.90;;;;;;6247589;22;20011;-31
2023/07/01 08:46:22;;;;;;;5.85;5.35;;;17.60;99.90;;;;;;6248023;23;20031;-32
2023/07/01 08:48:48;;;;;;;7.30;5.70;;;17.60;99.90;;;;;;6245155;23;20019;-31
2023/07/01 08:51:29;;;;;;;5.22;4.72;;;17.60;99.90;;;;;;6244775;23;20016;-31
2023/07/01 08:54:00;;;;;;;6.25;5.65;;;17.60;99.90;;;;;;6244883;22;20039;-32
2023/07/01 08:56:26;;;;;;;5.97;5.43;;;17.60;99.90;;;;;;6244898;23;20019;-31
2023/07/01 08:58:52;;;;;;;5.78;5.28;;;17.70;99.90;;;;;;6244566;23;20012;-32
2023/07/01 09:01:19;;;;;;;7.22;6.10;;;17.70;99.90;;;;;;6244924;23;20190;-32
2023/07/01 09:03:49;;;;;;;6.18;5.68;;;17.70;99.90;;;;;;6244839;22;20042;-32
2023/07/01 09:06:15;;;;;;;6.50;5.88;;;17.80;99.90;;;;;;6217357;23;20043;-32
2023/07/01 09:08:41;;;;;;;6.00;5.50;;;17.90;99.90;;;;;;6245303;23;20087;-32
2023/07/01 09:11:10;;;;;;;6.03;5.47;;;17.90;99.90;;;;;;6246111;23;20447;-32
2023/07/01 09:13:36;;;;;;;6.35;5.72;;;17.80;99.90;;;;;;6246343;22;20012;-32
2023/07/01 09:16:02;;;;;;;6.20;5.60;;;17.90;99.90;;;;;;6246412;23;20070;-31
2023/07/01 09:18:29;;;;;;;6.25;5.70;;;18.00;99.90;;;;;;6247091;23;20050;-32
2023/07/01 09:20:57;;;;;;;7.00;6.30;;;17.90;99.90;;;;;;6247092;23;20016;-32
2023/07/01 09:23:30;;;;;;;6.22;5.70;;;18.00;99.90;;;;;;6247497;22;20054;-32
2023/07/01 09:26:10;;;;;;;6.63;6.03;;;18.00;99.90;;;;;;6248589;23;20027;-31
2023/07/01 09:28:39;;;;;;;6.30;5.70;;;18.00;99.90;;;;;;6248826;23;20027;-32
2023/07/01 09:31:09;;;;;;;6.40;5.90;;;18.10;99.90;;;;;;6248478;23;20011;-32
2023/07/01 09:33:36;;;;;;;6.47;5.88;;;18.10;99.90;;;;;;6249242;22;20008;-32
2023/07/01 09:36:02;;;;;;;6.28;5.57;;;18.20;99.90;;;;;;6250071;23;20012;-33
2023/07/01 09:38:32;;;;;;;5.88;5.30;;;18.20;99.90;;;;;;6248660;23;20439;-32
2023/07/01 09:41:24;;;;;;;6.30;5.70;;;18.30;99.90;;;;;;6247675;23;20051;-33
2023/07/01 09:43:54;;;;;;;5.90;5.40;;;18.30;99.90;;;;;;6247990;22;20040;-33
2023/07/01 09:46:19;;;;;;;7.10;5.22;;;18.30;99.90;;;;;;6248288;23;20034;-33
2023/07/01 09:48:57;;;;;;;7.07;5.30;;;18.20;99.90;;;;;;6247719;23;20039;-33
2023/07/01 09:51:25;;;;;;;4.57;4.18;;;18.20;99.90;;;;;;6247893;23;20015;-33
2023/07/01 09:53:52;;;;;;;4.97;4.47;;;18.20;99.90;;;;;;6247776;22;20482;-33
2023/07/01 09:56:19;;;;;;;5.07;4.68;;;18.20;99.90;;;;;;6247442;23;20012;-32
2023/07/01 09:58:46;;;;;;;5.97;5.47;;;18.30;99.90;;;;;;6248509;23;20087;-33
2023/07/01 10:01:13;;;;;;;5.40;4.90;;;18.30;99.90;;;;;;6244877;23;20398;-34
2023/07/01 10:03:41;;;;;;;5.85;5.22;;;18.30;99.90;;;;;;6214447;23;20048;-33
2023/07/01 10:06:07;;;;;;;5.57;5.07;;;18.40;99.90;;;;;;6243441;23;20398;-33
2023/07/01 10:08:33;;;;;;;6.90;5.45;;;18.30;99.90;;;;;;6242991;23;20020;-33
2023/07/01 10:10:59;;;;;;;6.93;5.45;;;18.30;99.90;;;;;;6243153;23;20010;-33
2023/07/01 10:13:28;;;;;;;6.57;5.85;;;18.40;99.90;;;;;;6243768;22;20425;-33
2023/07/01 10:15:54;;;;;;;5.82;5.35;;;18.50;99.90;;;;;;6244181;23;20012;-33
2023/07/01 10:18:22;;;;;;;5.57;5.05;;;18.50;99.90;;;;;;6242898;23;20151;-33
2023/07/01 10:20:49;;;;;;;6.20;5.70;;;18.40;99.90;;;;;;6243590;23;20023;-34
2023/07/01 10:23:15;;;;;;;5.75;5.25;;;18.40;99.90;;;;;;6244923;22;20020;-34
2023/07/01 10:25:41;;;;;;;6.15;5.55;;;18.50;99.90;;;;;;6245577;23;20436;-33
2023/07/01 10:28:09;;;;;;;6.25;5.65;;;18.60;99.90;;;;;;6219236;23;20050;-33
2023/07/01 10:30:44;;;;;;;5.82;5.20;;;18.70;99.90;;;;;;6245532;23;20012;-33
2023/07/01 10:33:33;;;;;;;5.93;5.32;;;18.80;99.90;;;;;;6245860;22;20011;-34
2023/07/01 10:36:04;;;;;;;6.80;4.72;;;19.00;99.90;;;;;;6245894;23;20317;-33
2023/07/01 10:38:30;;;;;;;5.03;4.63;;;19.10;99.90;;;;;;6245243;23;20011;-33
2023/07/01 10:40:57;;;;;;;5.35;4.85;;;19.00;99.90;;;;;;6245563;23;20481;-34
2023/07/01 10:43:29;;;;;;;5.55;4.95;;;19.10;99.90;;;;;;6245726;22;20008;-33
2023/07/01 10:46:23;;;;;;;5.40;4.80;;;19.10;99.90;;;;;;6245172;23;20016;-33
2023/07/01 10:49:04;;;;;;;5.35;4.82;;;19.10;99.90;;;;;;6244708;23;20082;-33
2023/07/01 10:51:45;;;;;;;5.55;4.78;;;19.20;99.90;;;;;;6244772;23;20012;-33
2023/07/01 10:54:11;;;;;;;5.25;4.70;;;19.20;99.90;;;;;;6244837;23;20016;-34
2023/07/01 10:57:01;;;;;;;4.95;4.47;;;19.20;99.90;;;;;;6246314;23;20493;-34
2023/07/01 10:59:27;;;;;;;5.88;5.25;;;19.30;99.90;;;;;;6246612;23;20023;-33
2023/07/01 11:02:01;;;;;;;5.20;4.72;;;19.40;99.90;;;;;;6246414;22;20016;-33
2023/07/01 11:04:51;;;;;;;4.40;4.00;;;19.40;99.90;;;;;;6247178;23;20079;-33
2023/07/01 11:07:28;;;;;;;5.35;4.90;;;19.50;99.90;;;;;;6245728;23;20023;-33
2023/07/01 11:09:55;;;;;;;4.50;4.10;;;19.40;99.90;;;;;;6246141;23;20090;-34
2023/07/01 11:12:23;;;;;;;4.93;4.43;;;19.40;99.90;;;;;;6243467;22;20086;-33
2023/07/01 11:14:52;;;;;;;4.70;4.30;;;19.30;99.90;;;;;;6242377;23;20376;-33
2023/07/01 11:17:20;;;;;;;4.53;4.13;;;19.30;99.90;;;;;;6245145;23;20012;-33
2023/07/01 11:19:52;;;;;;;4.18;3.88;;;19.20;99.90;;;;;;6245049;23;20012;-33
2023/07/01 11:22:20;;;;;;;4.70;4.30;;;19.30;99.90;;;;;;6218196;23;20016;-33
2023/07/01 11:24:46;;;;;;;4.43;4.03;;;19.30;99.90;;;;;;6244489;23;20048;-33
2023/07/01 11:27:12;;;;;;;4.88;4.22;;;19.40;99.90;;;;;;6217660;23;20073;-33
2023/07/01 11:29:44;;;;;;;5.20;4.70;;;19.50;99.90;;;;;;6245350;23;20443;-33
2023/07/01 11:32:12;;;;;;;5.47;4.32;;;19.70;99.90;;;;;;6242857;22;20019;-33
2023/07/01 11:34:40;;;;;;;4.80;4.40;;;19.80;99.90;;;;;;6244286;23;20079;-33
2023/07/01 11:37:06;;;;;;;4.82;4.43;;;19.90;99.90;;;;;;6241931;23;20012;-33
2023/07/01 11:39:32;;;;;;;4.88;4.40;;;19.90;99.90;;;;;;6215761;23;20513;-34
2023/07/01 11:42:00;;;;;;;4.78;4.38;;;20.00;99.90;;;;;;6240688;22;20016;-33
2023/07/01 11:44:28;;;;;;;4.50;4.13;;;20.00;99.90;;;;;;6242273;23;20451;-34
2023/07/01 11:46:56;;;;;;;5.13;4.30;;;20.10;99.90;;;;;;6242183;23;20206;-33
2023/07/01 11:49:26;;;;;;;4.35;4.05;;;20.30;99.90;;;;;;6243485;23;20106;-33
2023/07/01 11:51:55;;;;;;;4.90;4.40;;;20.60;99.90;;;;;;6242808;22;20462;-33
2023/07/01 11:54:40;;;;;;;4.68;4.20;;;20.70;99.90;;;;;;6246361;23;20008;-33
2023/07/01 11:57:14;;;;;;;4.78;4.38;;;20.90;99.90;;;;;;6220214;23;20022;-34
2023/07/01 11:59:58;;;;;;;5.55;5.05;;;20.90;99.90;;;;;;6245004;23;20020;-34
2023/07/01 12:02:28;;;;;;;4.63;4.10;;;20.90;99.90;;;;;;6244197;22;20023;-34
2023/07/01 12:04:54;;;;;;;5.53;4.20;;;20.90;99.90;;;;;;6217538;23;20030;-33
2023/07/01 12:07:20;;;;;;;5.35;4.85;;;20.80;99.90;;;;;;6244168;23;20083;-34
2023/07/01 12:09:46;;;;;;;5.40;4.90;;;20.70;99.90;;;;;;6243364;23;20046;-33
2023/07/01 12:12:39;;;;;;;5.80;5.30;;;20.40;99.90;;;;;;6216573;23;20044;-33
2023/07/01 12:15:07;;;;;;;5.45;4.45;;;20.30;99.90;;;;;;6232634;23;20020;-33
2023/07/01 12:17:34;;;;;;;5.70;5.20;;;20.20;99.90;;;;;;6246105;23;20016;-33
2023/07/01 12:20:00;;;;;;;6.18;5.57;;;20.10;99.90;;;;;;6247563;23;20139;-33
2023/07/01 12:22:27;;;;;;;7.75;6.07;;;20.00;99.90;;;;;;6246508;22;20423;-34
2023/07/01 12:24:58;;;;;;;6.88;6.18;;;19.80;99.90;;;;;;6247945;23;20038;-34
2023/07/01 12:27:25;;;;;;;9.52;6.80;;;19.60;99.90;;;;;;6220711;23;20027;-34
2023/07/01 12:29:51;;;;;;;6.68;5.97;;;19.50;99.90;;;;;;6247689;23;20482;-34
2023/07/01 12:32:17;;;;;;;7.68;6.18;;;19.40;99.90;;;;;;6247536;22;20378;-33
2023/07/01 12:34:43;;;;;;;6.40;5.25;;;19.30;99.90;;;;;;6248113;23;20075;-33
2023/07/01 12:37:09;;;;;;;6.43;5.18;;;19.30;99.90;;;;;;6247536;23;20434;-33
2023/07/01 12:39:36;;;;;;;5.97;5.38;;;19.30;99.90;;;;;;6247526;23;20079;-43
2023/07/01 12:42:02;;;;;;;3.58;3.25;;;19.30;99.90;;;;;;6220225;23;20027;-33
2023/07/01 12:44:28;;;;;;;5.28;3.55;;;19.30;99.90;;;;;;6247512;23;20016;-34
2023/07/01 12:46:54;;;;;;;4.93;3.63;;;19.30;99.90;;;;;;6247703;23;20074;-33
2023/07/01 12:49:21;;;;;;;4.05;3.65;;;19.40;99.90;;;;;;6246889;23;20023;-33